Time;durP1;ratioP1;P1;durP2;ratioP2;P2;SDS_P1;SDS_P2;PMS_P1;PMS_P2;Temp;Humidity;BMP_temperature;BMP_pressure;BME280_temperature;BME280_humidity;BME280_pressure;Samples;Min_cycle;Max_cycle;Signal;HPM_P1;HPM_P2
2023/10/10 00:01:01;;;;;;;0.47;0.47;;;;;;;;;;4983033;28;20089;-61
2023/10/10 00:03:31;;;;;;;0.28;0.25;;;;;;;;;;4983795;28;20065;-61
2023/10/10 00:05:58;;;;;;;0.20;0.20;;;;;;;;;;4984018;28;20628;-61
2023/10/10 00:08:33;;;;;;;0.25;0.25;;;;;;;;;;4983780;28;20042;-62
2023/10/10 00:10:59;;;;;;;0.52;0.50;;;;;;;;;;4983465;28;20054;-61
2023/10/10 00:13:26;;;;;;;0.70;0.40;;;;;;;;;;4982939;28;20046;-61
2023/10/10 00:16:05;;;;;;;0.57;0.52;;;;;;;;;;4983977;28;20561;-61
2023/10/10 00:18:32;;;;;;;0.40;0.40;;;;;;;;;;4983515;28;20447;-61
2023/10/10 00:21:06;;;;;;;0.40;0.40;;;;;;;;;;4982888;28;20050;-60
2023/10/10 00:23:38;;;;;;;0.40;0.40;;;;;;;;;;4982957;28;20046;-61
2023/10/10 00:26:05;;;;;;;0.75;0.50;;;;;;;;;;4983010;28;20490;-62
2023/10/10 00:28:34;;;;;;;1.33;0.60;;;;;;;;;;4982734;28;20053;-61
2023/10/10 00:31:03;;;;;;;0.47;0.40;;;;;;;;;;4983394;28;20090;-61
2023/10/10 00:33:31;;;;;;;0.70;0.70;;;;;;;;;;4983348;28;20088;-61
2023/10/10 00:35:58;;;;;;;0.88;0.88;;;;;;;;;;4982652;28;20050;-61
2023/10/10 00:38:26;;;;;;;0.68;0.68;;;;;;;;;;4973967;28;20133;-60
2023/10/10 00:40:54;;;;;;;0.52;0.52;;;;;;;;;;4983503;28;20535;-61
2023/10/10 00:43:23;;;;;;;0.60;0.47;;;;;;;;;;4983105;28;20100;-61
2023/10/10 00:45:52;;;;;;;0.70;0.70;;;;;;;;;;4983784;28;20058;-61
2023/10/10 00:48:22;;;;;;;0.80;0.80;;;;;;;;;;4983152;28;20042;-60
2023/10/10 00:50:53;;;;;;;0.50;0.50;;;;;;;;;;4983175;28;20141;-61
2023/10/10 00:53:21;;;;;;;0.50;0.50;;;;;;;;;;4981721;28;20050;-62
2023/10/10 00:55:55;;;;;;;0.70;0.70;;;;;;;;;;4982385;28;20514;-61
2023/10/10 00:58:23;;;;;;;0.75;0.75;;;;;;;;;;4982971;28;20046;-62
2023/10/10 01:00:52;;;;;;;0.93;0.60;;;;;;;;;;4983353;28;20241;-61
2023/10/10 01:03:21;;;;;;;0.52;0.40;;;;;;;;;;4982458;28;20042;-60
2023/10/10 01:05:55;;;;;;;0.52;0.52;;;;;;;;;;4983477;28;20065;-61
2023/10/10 01:08:30;;;;;;;0.75;0.52;;;;;;;;;;4981855;28;20050;-61
2023/10/10 01:11:02;;;;;;;0.50;0.50;;;;;;;;;;4965067;28;20624;-61
2023/10/10 01:13:30;;;;;;;0.50;0.50;;;;;;;;;;4983173;28;20058;-61
2023/10/10 01:15:57;;;;;;;0.43;0.43;;;;;;;;;;4986867;28;20050;-61
2023/10/10 01:18:24;;;;;;;0.55;0.55;;;;;;;;;;4986897;28;20402;-61
2023/10/10 01:20:51;;;;;;;0.40;0.40;;;;;;;;;;4987307;28;20065;-61
2023/10/10 01:23:26;;;;;;;0.47;0.47;;;;;;;;;;4987479;28;20133;-61
2023/10/10 01:25:52;;;;;;;0.77;0.70;;;;;;;;;;4987303;28;20126;-61
2023/10/10 01:28:27;;;;;;;0.70;0.40;;;;;;;;;;4987171;28;20038;-61
2023/10/10 01:33:24;;;;;;;0.50;0.50;;;;;;;;;;4986151;28;20046;-61
2023/10/10 01:35:55;;;;;;;0.40;0.40;;;;;;;;;;4986466;28;20482;-61
2023/10/10 01:38:32;;;;;;;0.60;0.50;;;;;;;;;;4986336;28;20134;-61
2023/10/10 01:41:00;;;;;;;0.28;0.28;;;;;;;;;;4986221;28;20050;-61
2023/10/10 01:43:27;;;;;;;1.10;0.52;;;;;;;;;;4986605;28;20043;-62
2023/10/10 01:46:08;;;;;;;0.68;0.68;;;;;;;;;;4985552;28;20485;-61
2023/10/10 01:48:43;;;;;;;0.60;0.47;;;;;;;;;;4986222;28;20046;-61
2023/10/10 01:51:09;;;;;;;0.57;0.57;;;;;;;;;;4985975;28;20093;-61
2023/10/10 01:53:40;;;;;;;0.22;0.22;;;;;;;;;;4968240;28;20046;-61
2023/10/10 01:56:11;;;;;;;0.30;0.30;;;;;;;;;;4986025;28;20056;-61
2023/10/10 01:58:37;;;;;;;0.30;0.30;;;;;;;;;;4985277;28;20061;-61
2023/10/10 02:01:18;;;;;;;0.50;0.40;;;;;;;;;;4986469;28;20046;-61
2023/10/10 02:03:46;;;;;;;0.30;0.30;;;;;;;;;;4986486;28;20125;-61
2023/10/10 02:06:24;;;;;;;0.20;0.20;;;;;;;;;;4985434;28;20128;-62
2023/10/10 02:08:51;;;;;;;0.20;0.20;;;;;;;;;;4986231;28;20046;-61
2023/10/10 02:11:20;;;;;;;0.35;0.35;;;;;;;;;;4985884;28;20091;-61
2023/10/10 02:13:47;;;;;;;0.30;0.30;;;;;;;;;;4985917;28;20050;-61
2023/10/10 02:16:17;;;;;;;0.50;0.50;;;;;;;;;;4986249;28;20050;-61
2023/10/10 02:18:51;;;;;;;0.30;0.30;;;;;;;;;;4985887;28;20112;-61
2023/10/10 02:21:31;;;;;;;0.20;0.20;;;;;;;;;;4985759;28;20781;-61
2023/10/10 02:24:09;;;;;;;0.57;0.40;;;;;;;;;;4985790;28;20053;-61
2023/10/10 02:26:36;;;;;;;0.35;0.30;;;;;;;;;;4984345;28;20042;-61
2023/10/10 02:29:21;;;;;;;0.40;0.28;;;;;;;;;;4985607;28;20038;-61
2023/10/10 02:31:56;;;;;;;0.35;0.35;;;;;;;;;;4985761;28;20061;-62
2023/10/10 02:34:22;;;;;;;0.30;0.30;;;;;;;;;;4985431;28;20038;-61
2023/10/10 02:39:40;;;;;;;0.30;0.30;;;;;;;;;;4984745;28;20561;-62
2023/10/10 02:42:13;;;;;;;0.30;0.20;;;;;;;;;;4984462;28;20459;-61
2023/10/10 02:44:46;;;;;;;0.30;0.30;;;;;;;;;;4983985;28;20120;-62
2023/10/10 02:47:13;;;;;;;0.35;0.32;;;;;;;;;;4985397;28;20117;-61
2023/10/10 02:49:42;;;;;;;0.30;0.30;;;;;;;;;;4984500;28;20046;-61
2023/10/10 02:52:14;;;;;;;0.40;0.20;;;;;;;;;;4985662;28;20952;-61
2023/10/10 02:55:14;;;;;;;;;;;;;;;;;;4984267;28;20073;-61
2023/10/10 02:57:39;;;;;;;0.38;0.38;;;;;;;;;;4981686;28;19925;-61
2023/10/10 03:03:04;;;;;;;0.65;0.60;;;;;;;;;;4956690;28;20054;-61
2023/10/10 03:05:39;;;;;;;0.50;0.50;;;;;;;;;;4983116;28;20088;-61
2023/10/10 03:08:51;;;;;;;0.55;0.55;;;;;;;;;;4985152;28;20092;-61
2023/10/10 03:11:01;;;;;;;0.50;0.50;;;;;;;;;;4980194;28;20049;-61
2023/10/10 03:13:30;;;;;;;0.40;0.40;;;;;;;;;;4984883;28;20061;-61
2023/10/10 03:16:10;;;;;;;0.47;0.47;;;;;;;;;;4983650;28;20364;-61
2023/10/10 03:18:37;;;;;;;0.73;0.73;;;;;;;;;;4984386;28;20517;-61
2023/10/10 03:21:12;;;;;;;0.70;0.70;;;;;;;;;;4984869;28;20038;-61
2023/10/10 03:24:07;;;;;;;0.85;0.82;;;;;;;;;;4982774;28;20046;-60
2023/10/10 03:29:20;;;;;;;0.95;0.73;;;;;;;;;;4983209;28;20793;-61
2023/10/10 03:31:49;;;;;;;0.73;0.60;;;;;;;;;;4983549;28;20058;-62
2023/10/10 03:36:44;;;;;;;0.65;0.65;;;;;;;;;;4984426;28;21753;-61
2023/10/10 05:23:34;;;;;;;0.60;0.60;;;;;;;;;;4986619;28;20046;-62
2023/10/10 05:26:02;;;;;;;0.40;0.40;;;;;;;;;;4986879;28;20050;-61
2023/10/10 05:28:32;;;;;;;0.50;0.50;;;;;;;;;;4986812;28;20414;-61
2023/10/10 05:30:59;;;;;;;0.60;0.40;;;;;;;;;;4986614;28;20065;-61
2023/10/10 05:33:26;;;;;;;1.42;0.65;;;;;;;;;;4985858;28;20408;-62
2023/10/10 05:35:57;;;;;;;1.08;1.00;;;;;;;;;;4986989;28;20042;-62
2023/10/10 05:38:25;;;;;;;0.82;0.82;;;;;;;;;;4985941;28;20038;-62
2023/10/10 05:40:51;;;;;;;0.80;0.80;;;;;;;;;;4986249;28;20046;-61
2023/10/10 05:43:19;;;;;;;0.70;0.70;;;;;;;;;;4986702;28;20057;-61
2023/10/10 05:45:46;;;;;;;1.23;1.13;;;;;;;;;;4985946;28;20057;-61
2023/10/10 05:48:12;;;;;;;2.33;1.38;;;;;;;;;;4986470;28;20471;-61
2023/10/10 05:50:40;;;;;;;1.20;1.10;;;;;;;;;;4985366;28;20685;-61
2023/10/10 05:53:07;;;;;;;1.52;1.25;;;;;;;;;;4986673;28;20483;-61
2023/10/10 05:55:34;;;;;;;1.25;1.15;;;;;;;;;;4986633;28;20042;-61
2023/10/10 05:58:03;;;;;;;0.95;0.93;;;;;;;;;;4985547;28;20054;-61
2023/10/10 06:00:36;;;;;;;1.10;1.00;;;;;;;;;;4986261;28;20038;-61
2023/10/10 06:03:02;;;;;;;1.30;1.20;;;;;;;;;;4985555;28;20046;-62
2023/10/10 06:05:29;;;;;;;1.30;1.08;;;;;;;;;;4984949;28;20073;-61
2023/10/10 06:07:58;;;;;;;1.80;1.70;;;;;;;;;;4984888;28;20501;-61
2023/10/10 06:10:28;;;;;;;2.20;2.05;;;;;;;;;;4986345;28;20038;-61
2023/10/10 06:12:57;;;;;;;1.85;1.65;;;;;;;;;;4985814;28;20112;-61
2023/10/10 06:15:23;;;;;;;1.73;1.63;;;;;;;;;;4985879;28;20073;-62
2023/10/10 06:17:49;;;;;;;1.85;1.30;;;;;;;;;;4986324;28;20101;-61
2023/10/10 06:20:21;;;;;;;2.47;2.28;;;;;;;;;;4968273;28;20490;-61
2023/10/10 06:22:47;;;;;;;3.28;2.75;;;;;;;;;;4986013;28;20121;-62
2023/10/10 06:25:17;;;;;;;3.28;2.97;;;;;;;;;;4986144;28;20046;-61
2023/10/10 06:27:45;;;;;;;3.63;3.30;;;;;;;;;;4985236;28;20053;-61
2023/10/10 06:30:17;;;;;;;4.72;3.22;;;;;;;;;;4985518;28;20062;-61
2023/10/10 06:32:46;;;;;;;4.40;4.00;;;;;;;;;;4984923;28;20042;-61
2023/10/10 06:35:27;;;;;;;5.30;4.80;;;;;;;;;;4984229;28;20622;-61
2023/10/10 06:37:53;;;;;;;5.32;4.53;;;;;;;;;;4985636;28;20053;-61
2023/10/10 06:40:28;;;;;;;5.43;4.93;;;;;;;;;;4985488;28;20151;-61
2023/10/10 06:42:57;;;;;;;5.20;4.80;;;;;;;;;;4985130;28;20046;-62
2023/10/10 06:45:27;;;;;;;5.82;5.32;;;;;;;;;;4985290;28;20065;-61
2023/10/10 06:47:54;;;;;;;5.18;4.72;;;;;;;;;;4983725;28;20173;-61
2023/10/10 06:50:23;;;;;;;6.60;6.00;;;;;;;;;;4985889;28;20108;-61
2023/10/10 06:52:54;;;;;;;5.32;4.82;;;;;;;;;;4985386;28;20564;-60
2023/10/10 06:55:23;;;;;;;6.13;5.53;;;;;;;;;;4984592;28;20121;-62
2023/10/10 06:57:58;;;;;;;4.90;4.40;;;;;;;;;;4985164;28;20513;-61
2023/10/10 07:00:28;;;;;;;4.80;4.25;;;;;;;;;;4985140;28;20482;-61
2023/10/10 07:02:58;;;;;;;4.47;4.07;;;;;;;;;;4984257;28;20522;-61
2023/10/10 07:05:27;;;;;;;4.93;4.43;;;;;;;;;;4985113;28;20512;-61
2023/10/10 07:07:58;;;;;;;5.25;4.75;;;;;;;;;;4984207;28;20805;-62
2023/10/10 07:10:35;;;;;;;4.88;4.45;;;;;;;;;;4984802;28;20530;-62
2023/10/10 07:13:02;;;;;;;5.70;5.20;;;;;;;;;;4984431;28;20053;-62
2023/10/10 07:15:34;;;;;;;5.38;4.88;;;;;;;;;;4982424;28;20038;-61
2023/10/10 07:18:14;;;;;;;4.25;3.85;;;;;;;;;;4985126;28;20053;-61
2023/10/10 07:23:25;;;;;;;5.22;4.55;;;;;;;;;;4983230;28;20135;-61
2023/10/10 07:26:00;;;;;;;5.80;5.20;;;;;;;;;;4968628;28;20054;-61
2023/10/10 07:28:29;;;;;;;5.40;4.90;;;;;;;;;;4985279;28;20050;-61
2023/10/10 07:30:56;;;;;;;4.28;3.97;;;;;;;;;;4985261;28;20111;-61
2023/10/10 07:33:23;;;;;;;6.03;5.53;;;;;;;;;;4986053;28;20055;-61
2023/10/10 07:35:55;;;;;;;6.97;6.03;;;;;;;;;;4986318;28;20230;-61
2023/10/10 07:38:28;;;;;;;7.50;6.70;;;;;;;;;;4986204;28;20050;-62
2023/10/10 07:40:54;;;;;;;5.70;5.13;;;;;;;;;;4968979;28;20061;-61
2023/10/10 07:43:26;;;;;;;6.72;6.03;;;;;;;;;;4983187;28;20782;-62
2023/10/10 07:45:54;;;;;;;4.65;4.25;;;;;;;;;;4982426;28;20074;-62
2023/10/10 07:51:05;;;;;;;10.25;8.02;;;;;;;;;;4978258;28;20055;-62
2023/10/10 07:53:40;;;;;;;9.15;8.23;;;;;;;;;;4984252;28;20489;-61
2023/10/10 07:56:07;;;;;;;10.02;9.02;;;;;;;;;;4978889;28;20058;-62
2023/10/10 07:58:56;;;;;;;13.40;12.07;;;;;;;;;;4979949;28;20129;-61
2023/10/10 08:01:23;;;;;;;13.68;11.95;;;;;;;;;;4984225;28;20045;-62
2023/10/10 08:03:49;;;;;;;19.75;16.45;;;;;;;;;;4985536;28;20097;-62
2023/10/10 08:06:22;;;;;;;19.35;15.63;;;;;;;;;;4985133;28;20142;-62
2023/10/10 08:09:09;;;;;;;19.75;16.65;;;;;;;;;;4986381;28;20070;-62
2023/10/10 08:11:37;;;;;;;23.42;17.38;;;;;;;;;;4985106;28;20132;-61
2023/10/10 08:14:08;;;;;;;22.13;18.98;;;;;;;;;;4983259;28;20061;-63
2023/10/10 08:16:34;;;;;;;18.05;15.23;;;;;;;;;;4985553;28;20057;-64
2023/10/10 08:19:15;;;;;;;14.20;12.68;;;;;;;;;;4985304;28;20054;-60
2023/10/10 08:21:50;;;;;;;23.52;18.80;;;;;;;;;;4983094;28;20042;-61
2023/10/10 08:24:17;;;;;;;18.73;16.17;;;;;;;;;;4985965;28;20100;-64
2023/10/10 08:26:44;;;;;;;16.70;14.65;;;;;;;;;;4982316;28;20085;-63
2023/10/10 08:29:11;;;;;;;25.08;19.92;;;;;;;;;;4985123;28;20061;-63
2023/10/10 08:31:38;;;;;;;25.95;20.95;;;;;;;;;;4980626;28;20070;-63
2023/10/10 08:34:04;;;;;;;19.88;17.67;;;;;;;;;;4984955;28;20050;-63
2023/10/10 08:36:34;;;;;;;16.88;14.55;;;;;;;;;;4983566;28;20552;-63
2023/10/10 08:39:49;;;;;;;18.77;16.65;;;;;;;;;;4985398;28;20450;-63
2023/10/10 08:41:47;;;;;;;24.35;18.90;;;;;;;;;;4969162;28;20525;-63
2023/10/10 08:44:20;;;;;;;27.42;21.55;;;;;;;;;;4984801;28;20061;-62
2023/10/10 08:46:47;;;;;;;19.13;16.35;;;;;;;;;;4984779;28;20050;-63
2023/10/10 08:49:14;;;;;;;15.20;13.60;;;;;;;;;;4983938;28;20625;-63
2023/10/10 08:51:41;;;;;;;21.80;18.42;;;;;;;;;;4977784;28;20299;-63
2023/10/10 08:54:12;;;;;;;20.13;17.70;;;;;;;;;;4982287;28;20057;-63
2023/10/10 08:56:59;;;;;;;27.23;20.25;;;;;;;;;;4981355;28;20049;-63
2023/10/10 08:59:25;;;;;;;23.80;18.35;;;;;;;;;;4983466;28;20452;-63
2023/10/10 09:01:51;;;;;;;26.58;19.52;;;;;;;;;;4980310;28;20137;-63
2023/10/10 09:04:19;;;;;;;19.42;17.23;;;;;;;;;;4985316;28;20099;-63
2023/10/10 09:06:58;;;;;;;20.60;16.23;;;;;;;;;;4975770;28;20449;-63
2023/10/10 09:09:34;;;;;;;20.58;18.17;;;;;;;;;;4978576;28;20045;-63
2023/10/10 09:12:03;;;;;;;18.10;15.15;;;;;;;;;;4982114;28;20061;-63
2023/10/10 09:14:43;;;;;;;21.05;18.45;;;;;;;;;;4977700;28;20038;-63
2023/10/10 09:17:34;;;;;;;21.70;19.30;;;;;;;;;;4978528;28;20782;-63
2023/10/10 09:20:12;;;;;;;18.67;16.40;;;;;;;;;;4965125;28;20062;-62
2023/10/10 09:22:45;;;;;;;16.88;15.10;;;;;;;;;;4982168;28;20055;-61
2023/10/10 09:25:19;;;;;;;17.50;14.48;;;;;;;;;;4978499;28;20065;-60
2023/10/10 09:28:03;;;;;;;20.20;15.77;;;;;;;;;;4977897;28;20050;-60
2023/10/10 09:30:34;;;;;;;20.45;18.25;;;;;;;;;;4981749;28;20407;-61
2023/10/10 09:33:47;;;;;;;19.35;16.48;;;;;;;;;;4979723;28;20053;-58
2023/10/10 09:35:53;;;;;;;28.88;19.70;;;;;;;;;;4973186;28;20458;-59
2023/10/10 09:38:19;;;;;;;;;;;;;;;;;;4988708;28;20054;-59
2023/10/10 09:40:48;;;;;;;26.85;20.70;;;;;;;;;;4970945;28;19918;-60
2023/10/10 09:43:24;;;;;;;26.05;21.50;;;;;;;;;;4988108;28;20038;-60
2023/10/10 09:45:58;;;;;;;27.50;20.45;;;;;;;;;;4984685;28;20081;-60
2023/10/10 09:48:28;;;;;;;26.20;21.70;;;;;;;;;;4985587;28;20078;-59
2023/10/10 09:53:46;;;;;;;26.00;19.70;;;;;;;;;;4988441;28;20047;-60
2023/10/10 09:56:20;;;;;;;24.27;19.08;;;;;;;;;;4987825;28;20109;-60
2023/10/10 09:58:47;;;;;;;20.42;17.17;;;;;;;;;;4971550;28;20136;-60
2023/10/10 10:01:24;;;;;;;19.58;15.55;;;;;;;;;;4989257;28;20049;-60
2023/10/10 10:03:59;;;;;;;17.58;14.38;;;;;;;;;;4988769;28;20120;-60
2023/10/10 10:06:37;;;;;;;26.67;19.58;;;;;;;;;;4988953;28;20074;-60
2023/10/10 10:09:18;;;;;;;22.05;17.52;;;;;;;;;;4987931;28;20087;-60
2023/10/10 10:11:59;;;;;;;23.38;17.25;;;;;;;;;;4987041;28;20042;-60
2023/10/10 10:14:47;;;;;;;20.30;15.32;;;;;;;;;;4980648;28;20097;-60
2023/10/10 10:17:48;;;;;;;28.95;20.48;;;;;;;;;;4987164;28;20050;-60
2023/10/10 10:20:33;;;;;;;25.52;19.13;;;;;;;;;;4982082;28;20058;-60
2023/10/10 10:23:12;;;;;;;24.08;19.23;;;;;;;;;;4986885;28;20051;-60
2023/10/10 10:25:45;;;;;;;30.77;21.13;;;;;;;;;;4980934;28;20064;-60
2023/10/10 10:28:20;;;;;;;25.60;20.33;;;;;;;;;;4988681;28;20050;-60
2023/10/10 10:30:50;;;;;;;29.20;21.35;;;;;;;;;;4988409;28;20093;-60
2023/10/10 10:33:19;;;;;;;23.00;18.55;;;;;;;;;;4988441;28;20177;-60
2023/10/10 10:35:56;;;;;;;27.58;20.95;;;;;;;;;;4986057;28;20149;-60
2023/10/10 10:38:23;;;;;;;23.40;19.15;;;;;;;;;;4968192;28;20054;-62
2023/10/10 10:40:50;;;;;;;28.85;21.15;;;;;;;;;;4982964;28;20050;-61
2023/10/10 10:43:31;;;;;;;28.50;19.63;;;;;;;;;;4986236;28;20054;-60
2023/10/10 10:46:27;;;;;;;25.17;20.42;;;;;;;;;;4980328;28;20581;-60
2023/10/10 10:49:02;;;;;;;24.02;18.90;;;;;;;;;;4980167;28;20371;-60
2023/10/10 10:52:14;;;;;;;24.23;19.08;;;;;;;;;;4983677;28;20074;-60
2023/10/10 10:54:35;;;;;;;21.85;16.98;;;;;;;;;;4983629;28;20093;-60
2023/10/10 10:57:27;;;;;;;18.23;15.05;;;;;;;;;;4984890;28;20050;-61
2023/10/10 10:59:56;;;;;;;26.52;20.83;;;;;;;;;;4986578;28;20100;-61
2023/10/10 11:02:35;;;;;;;26.42;20.40;;;;;;;;;;4982463;28;20121;-61
2023/10/10 11:05:07;;;;;;;19.90;17.25;;;;;;;;;;4944353;28;20108;-60
2023/10/10 11:07:41;;;;;;;21.52;18.90;;;;;;;;;;4983836;28;20050;-59
2023/10/10 11:10:07;;;;;;;26.05;19.73;;;;;;;;;;4984617;28;20042;-59
2023/10/10 11:12:36;;;;;;;22.55;15.75;;;;;;;;;;4987361;28;20042;-59
2023/10/10 11:15:07;;;;;;;14.77;10.98;;;;;;;;;;4986361;28;20061;-59
2023/10/10 11:17:40;;;;;;;17.92;14.48;;;;;;;;;;4987113;28;20042;-59
2023/10/10 11:20:26;;;;;;;16.65;13.80;;;;;;;;;;4981275;28;20844;-59
2023/10/10 11:23:07;;;;;;;11.13;9.95;;;;;;;;;;4984572;28;20042;-59
2023/10/10 11:25:45;;;;;;;8.83;7.67;;;;;;;;;;4984373;28;20046;-60
2023/10/10 11:28:21;;;;;;;14.02;11.68;;;;;;;;;;4982248;28;20298;-60
2023/10/10 11:30:49;;;;;;;15.18;11.90;;;;;;;;;;4984487;28;20133;-60
2023/10/10 11:33:18;;;;;;;17.52;12.80;;;;;;;;;;4985973;28;20125;-60
2023/10/10 11:36:01;;;;;;;13.52;11.40;;;;;;;;;;4980349;28;20049;-60
2023/10/10 11:38:36;;;;;;;16.10;13.02;;;;;;;;;;4981897;28;20727;-60
2023/10/10 11:41:08;;;;;;;16.13;14.07;;;;;;;;;;4977227;28;20054;-59
2023/10/10 11:43:37;;;;;;;17.33;13.13;;;;;;;;;;4981345;28;20046;-60
2023/10/10 11:46:03;;;;;;;20.00;14.38;;;;;;;;;;4982949;28;20065;-61
2023/10/10 11:48:30;;;;;;;15.98;13.88;;;;;;;;;;4971366;28;20049;-60
2023/10/10 11:50:59;;;;;;;18.90;15.32;;;;;;;;;;4977829;28;20133;-59
2023/10/10 11:53:27;;;;;;;17.10;14.27;;;;;;;;;;4980785;28;20490;-59
2023/10/10 11:56:07;;;;;;;13.50;11.10;;;;;;;;;;4966298;28;20062;-60
2023/10/10 11:58:36;;;;;;;10.07;8.90;;;;;;;;;;4972616;28;20038;-60
2023/10/10 12:01:18;;;;;;;14.70;11.80;;;;;;;;;;4972108;28;20038;-60
2023/10/10 12:03:44;;;;;;;15.30;12.60;;;;;;;;;;4976795;28;20842;-60
2023/10/10 12:06:19;;;;;;;16.85;11.85;;;;;;;;;;4977998;28;20042;-60
2023/10/10 12:08:48;;;;;;;17.35;13.90;;;;;;;;;;4981686;28;20121;-60
2023/10/10 12:11:25;;;;;;;15.68;13.07;;;;;;;;;;4978517;28;20609;-59
2023/10/10 12:13:52;;;;;;;17.80;14.05;;;;;;;;;;4983200;28;20050;-60
2023/10/10 12:16:23;;;;;;;12.43;10.75;;;;;;;;;;4974573;28;20077;-60
2023/10/10 12:18:49;;;;;;;8.63;7.70;;;;;;;;;;4983196;28;20042;-60
2023/10/10 12:21:23;;;;;;;9.45;7.03;;;;;;;;;;4981900;28;20046;-60
2023/10/10 12:23:52;;;;;;;10.98;8.77;;;;;;;;;;4983323;28;20062;-60
2023/10/10 12:26:18;;;;;;;8.52;7.63;;;;;;;;;;4984188;28;20108;-60
2023/10/10 12:28:48;;;;;;;8.65;7.57;;;;;;;;;;4981796;28;20113;-60
2023/10/10 12:31:17;;;;;;;7.30;6.60;;;;;;;;;;4982583;28;20777;-60
2023/10/10 12:33:48;;;;;;;10.40;9.23;;;;;;;;;;4983859;28;20069;-60
2023/10/10 12:36:15;;;;;;;13.27;11.30;;;;;;;;;;4979222;28;20563;-61
2023/10/10 12:38:41;;;;;;;18.23;13.60;;;;;;;;;;4977438;28;20125;-60
2023/10/10 12:41:20;;;;;;;15.45;12.88;;;;;;;;;;4980251;28;20042;-60
2023/10/10 12:43:46;;;;;;;13.88;10.07;;;;;;;;;;4979697;28;20046;-59
2023/10/10 12:46:17;;;;;;;11.05;9.23;;;;;;;;;;4961146;28;20307;-60
2023/10/10 12:48:46;;;;;;;13.80;10.10;;;;;;;;;;4983162;28;20494;-60
2023/10/10 12:51:13;;;;;;;16.90;12.38;;;;;;;;;;4981693;28;20144;-60
2023/10/10 12:53:39;;;;;;;13.32;10.27;;;;;;;;;;4982147;28;20483;-60
2023/10/10 12:56:06;;;;;;;12.73;10.30;;;;;;;;;;4984368;28;20042;-60
2023/10/10 12:58:32;;;;;;;9.40;8.48;;;;;;;;;;4983492;28;20037;-60
2023/10/10 13:00:59;;;;;;;10.90;9.07;;;;;;;;;;4977298;28;20479;-60
2023/10/10 13:03:30;;;;;;;8.75;7.85;;;;;;;;;;4981209;28;20122;-59
2023/10/10 13:06:00;;;;;;;10.13;8.00;;;;;;;;;;4983941;28;20043;-60
2023/10/10 13:08:38;;;;;;;7.60;6.45;;;;;;;;;;4981281;28;20290;-60
2023/10/10 13:11:12;;;;;;;6.38;5.75;;;;;;;;;;4985699;28;20050;-60
2023/10/10 13:13:45;;;;;;;9.27;7.80;;;;;;;;;;4988230;28;20505;-60
2023/10/10 13:16:22;;;;;;;11.18;9.35;;;;;;;;;;4987755;28;20407;-60
2023/10/10 13:18:48;;;;;;;13.13;10.15;;;;;;;;;;4988877;28;20050;-60
2023/10/10 13:21:15;;;;;;;10.95;8.57;;;;;;;;;;4983251;28;20118;-60
2023/10/10 13:23:43;;;;;;;11.73;10.52;;;;;;;;;;4969139;28;20065;-60
2023/10/10 13:26:10;;;;;;;11.90;9.43;;;;;;;;;;4983737;28;20119;-60
2023/10/10 13:28:37;;;;;;;12.55;9.60;;;;;;;;;;4988055;28;20046;-60
2023/10/10 13:31:03;;;;;;;10.32;9.15;;;;;;;;;;4985142;28;20058;-60
2023/10/10 13:33:29;;;;;;;11.65;9.48;;;;;;;;;;4986533;28;20053;-60
2023/10/10 13:35:55;;;;;;;13.65;9.70;;;;;;;;;;4986039;28;20133;-61
2023/10/10 13:38:21;;;;;;;11.45;8.93;;;;;;;;;;4985955;28;20035;-60
2023/10/10 13:40:48;;;;;;;11.40;9.07;;;;;;;;;;4986003;28;20101;-60
2023/10/10 13:43:18;;;;;;;18.17;11.38;;;;;;;;;;4985714;28;20105;-60
2023/10/10 13:45:45;;;;;;;16.90;12.90;;;;;;;;;;4989840;28;20035;-60
2023/10/10 13:48:14;;;;;;;15.57;13.88;;;;;;;;;;4985979;28;20042;-59
2023/10/10 13:50:43;;;;;;;18.00;15.02;;;;;;;;;;4987634;28;20137;-58
2023/10/10 13:53:12;;;;;;;18.13;14.32;;;;;;;;;;4978668;28;20074;-59
2023/10/10 13:55:38;;;;;;;17.63;14.32;;;;;;;;;;4981255;28;20050;-59
2023/10/10 13:58:07;;;;;;;17.13;13.27;;;;;;;;;;4984235;28;20034;-59
2023/10/10 14:00:41;;;;;;;15.30;12.93;;;;;;;;;;4985138;28;20097;-60
2023/10/10 14:03:07;;;;;;;15.68;13.23;;;;;;;;;;4985314;28;20042;-60
2023/10/10 14:05:35;;;;;;;17.45;14.00;;;;;;;;;;4984537;28;20410;-60
2023/10/10 14:08:17;;;;;;;17.50;15.60;;;;;;;;;;4984897;28;20181;-60
2023/10/10 14:10:43;;;;;;;15.65;13.73;;;;;;;;;;4981603;28;20505;-60
2023/10/10 14:13:18;;;;;;;17.40;12.50;;;;;;;;;;4978053;28;20722;-60
2023/10/10 14:15:57;;;;;;;12.98;10.25;;;;;;;;;;4979780;28;20044;-59
2023/10/10 14:18:26;;;;;;;15.88;13.05;;;;;;;;;;4982797;28;20057;-60
2023/10/10 14:20:53;;;;;;;17.45;13.90;;;;;;;;;;4982166;28;20438;-60
2023/10/10 14:23:20;;;;;;;12.88;11.35;;;;;;;;;;4984811;28;20046;-60
2023/10/10 14:25:47;;;;;;;14.13;11.23;;;;;;;;;;4980945;28;20034;-60
2023/10/10 14:28:16;;;;;;;11.65;9.57;;;;;;;;;;4981072;28;20039;-60
2023/10/10 14:30:49;;;;;;;9.73;8.40;;;;;;;;;;4977991;28;20061;-61
2023/10/10 14:33:16;;;;;;;10.55;9.10;;;;;;;;;;4979156;28;20407;-61
2023/10/10 14:35:44;;;;;;;15.57;13.43;;;;;;;;;;4977161;28;20065;-60
2023/10/10 14:38:13;;;;;;;14.07;12.25;;;;;;;;;;4978433;28;20133;-60
2023/10/10 14:40:40;;;;;;;11.90;9.57;;;;;;;;;;4977666;28;20053;-60
2023/10/10 14:43:07;;;;;;;14.88;10.13;;;;;;;;;;4977061;28;20153;-59
2023/10/10 14:45:34;;;;;;;18.17;14.48;;;;;;;;;;4974349;28;20129;-60
2023/10/10 14:48:04;;;;;;;22.70;18.23;;;;;;;;;;4977897;28;20053;-60
2023/10/10 14:50:36;;;;;;;14.48;11.82;;;;;;;;;;4986393;28;20035;-60
2023/10/10 14:53:08;;;;;;;24.00;15.10;;;;;;;;;;4985736;28;20046;-60
2023/10/10 14:55:39;;;;;;;11.48;10.20;;;;;;;;;;4982183;28;20042;-61
2023/10/10 14:58:09;;;;;;;8.83;7.93;;;;;;;;;;4985870;28;20053;-60
2023/10/10 15:00:41;;;;;;;14.88;10.52;;;;;;;;;;4980169;28;20293;-63
2023/10/10 15:03:15;;;;;;;17.77;14.15;;;;;;;;;;4981181;28;20046;-60
2023/10/10 15:05:51;;;;;;;15.68;12.15;;;;;;;;;;4978078;28;20114;-61
2023/10/10 15:08:21;;;;;;;20.55;15.27;;;;;;;;;;4978060;28;20042;-60
2023/10/10 15:10:51;;;;;;;16.05;13.70;;;;;;;;;;4980636;28;20038;-61
2023/10/10 15:13:17;;;;;;;11.50;9.60;;;;;;;;;;4979019;28;20121;-60
2023/10/10 15:15:48;;;;;;;9.95;8.77;;;;;;;;;;4984141;28;20462;-60
2023/10/10 15:18:17;;;;;;;13.57;11.25;;;;;;;;;;4985976;28;20118;-60
2023/10/10 15:20:50;;;;;;;11.65;9.95;;;;;;;;;;4983414;28;20049;-60
2023/10/10 15:23:20;;;;;;;11.10;9.38;;;;;;;;;;4984341;28;20110;-60
2023/10/10 15:25:53;;;;;;;9.43;7.65;;;;;;;;;;4982322;28;20038;-60
2023/10/10 15:28:19;;;;;;;8.40;7.32;;;;;;;;;;4985659;28;20046;-61
2023/10/10 15:30:45;;;;;;;8.80;7.10;;;;;;;;;;4944895;28;1053636;-60
2023/10/10 15:33:17;;;;;;;15.88;11.55;;;;;;;;;;4984893;28;20092;-61
2023/10/10 15:35:46;;;;;;;12.13;9.45;;;;;;;;;;4979534;28;20064;-60
2023/10/10 15:38:12;;;;;;;13.27;10.00;;;;;;;;;;4974190;28;20777;-60
2023/10/10 15:40:43;;;;;;;10.60;8.73;;;;;;;;;;4984696;28;20042;-60
2023/10/10 15:43:13;;;;;;;7.93;6.68;;;;;;;;;;4976969;28;20054;-60
2023/10/10 15:45:42;;;;;;;10.68;8.77;;;;;;;;;;4982625;28;20038;-61
2023/10/10 15:48:24;;;;;;;9.07;8.10;;;;;;;;;;4981642;28;20101;-60
2023/10/10 15:50:51;;;;;;;10.85;9.43;;;;;;;;;;4981196;28;20581;-60
2023/10/10 15:53:20;;;;;;;8.00;7.15;;;;;;;;;;4983069;28;20133;-61
2023/10/10 15:55:46;;;;;;;12.52;10.38;;;;;;;;;;4984259;28;20065;-61
2023/10/10 15:58:12;;;;;;;11.07;9.38;;;;;;;;;;4985157;28;20348;-60
2023/10/10 16:00:39;;;;;;;10.05;8.57;;;;;;;;;;4985517;28;20046;-61
2023/10/10 16:03:06;;;;;;;10.80;9.10;;;;;;;;;;4984001;28;20133;-61
2023/10/10 16:05:42;;;;;;;13.52;11.20;;;;;;;;;;4984778;28;20049;-61
2023/10/10 16:08:08;;;;;;;11.57;9.77;;;;;;;;;;4983174;28;20038;-60
2023/10/10 16:10:34;;;;;;;10.95;9.30;;;;;;;;;;4985121;28;20080;-61
2023/10/10 16:13:01;;;;;;;9.88;8.30;;;;;;;;;;4984507;28;20042;-60
2023/10/10 16:15:27;;;;;;;9.02;7.28;;;;;;;;;;4984564;28;20045;-60
2023/10/10 16:17:53;;;;;;;11.80;10.30;;;;;;;;;;4984883;28;20038;-61
2023/10/10 16:20:22;;;;;;;9.98;8.80;;;;;;;;;;4986216;28;20122;-61
2023/10/10 16:22:55;;;;;;;14.07;11.15;;;;;;;;;;4985701;28;20076;-60
2023/10/10 16:25:23;;;;;;;16.25;13.73;;;;;;;;;;4985649;28;20486;-60
2023/10/10 16:27:50;;;;;;;18.58;14.88;;;;;;;;;;4985737;28;20129;-61
2023/10/10 16:30:16;;;;;;;17.45;15.18;;;;;;;;;;4985380;28;20050;-61
2023/10/10 16:32:43;;;;;;;19.27;16.33;;;;;;;;;;4983097;28;20042;-60
2023/10/10 16:35:11;;;;;;;18.55;13.75;;;;;;;;;;4986148;28;20053;-60
2023/10/10 16:37:38;;;;;;;19.00;14.40;;;;;;;;;;4978121;28;20122;-60
2023/10/10 16:40:05;;;;;;;15.00;12.13;;;;;;;;;;4985287;28;20047;-60
2023/10/10 16:42:32;;;;;;;16.00;12.30;;;;;;;;;;4985578;28;20066;-61
2023/10/10 16:44:59;;;;;;;15.25;12.57;;;;;;;;;;4983678;28;20493;-60
2023/10/10 16:47:25;;;;;;;11.45;9.90;;;;;;;;;;4985835;28;20113;-60
2023/10/10 16:49:52;;;;;;;10.07;8.88;;;;;;;;;;4986229;28;20505;-61
2023/10/10 16:52:19;;;;;;;15.82;12.27;;;;;;;;;;4985437;28;20392;-61
2023/10/10 16:54:50;;;;;;;11.60;10.40;;;;;;;;;;4985883;28;20053;-60
2023/10/10 16:57:16;;;;;;;9.98;8.93;;;;;;;;;;4984047;28;20057;-60
2023/10/10 16:59:45;;;;;;;11.40;9.88;;;;;;;;;;4986039;28;20508;-61